sensor_id;sensor_type;location;lat;lon;timestamp;pressure;altitude;pressure_sealevel;temperature;humidity
68506;BME280;55509;50.680;17.942;2023-02-15T00:01:17;101423.75;;;2.07;78.04
68506;BME280;55509;50.680;17.942;2023-02-15T00:04:20;101424.73;;;2.05;78.03
68506;BME280;55509;50.680;17.942;2023-02-15T00:07:21;101419.73;;;2.02;78.01
68506;BME280;55509;50.680;17.942;2023-02-15T00:10:23;101425.48;;;1.97;78.02
68506;BME280;55509;50.680;17.942;2023-02-15T00:13:24;101421.84;;;1.92;78.65
68506;BME280;55509;50.680;17.942;2023-02-15T00:16:26;101425.00;;;1.88;78.65
68506;BME280;55509;50.680;17.942;2023-02-15T00:19:27;101416.39;;;1.85;78.83
68506;BME280;55509;50.680;17.942;2023-02-15T00:22:29;101410.45;;;1.84;78.84
68506;BME280;55509;50.680;17.942;2023-02-15T00:25:30;101406.34;;;1.86;78.80
68506;BME280;55509;50.680;17.942;2023-02-15T00:28:32;101400.15;;;1.87;79.01
68506;BME280;55509;50.680;17.942;2023-02-15T00:31:33;101396.37;;;1.88;79.33
68506;BME280;55509;50.680;17.942;2023-02-15T00:34:35;101396.52;;;1.88;79.29
68506;BME280;55509;50.680;17.942;2023-02-15T00:37:37;101390.41;;;1.86;79.33
68506;BME280;55509;50.680;17.942;2023-02-15T00:40:38;101390.59;;;1.86;79.65
68506;BME280;55509;50.680;17.942;2023-02-15T00:43:40;101386.98;;;1.88;79.39
68506;BME280;55509;50.680;17.942;2023-02-15T00:46:42;101383.49;;;1.87;79.58
68506;BME280;55509;50.680;17.942;2023-02-15T00:49:43;101376.27;;;1.84;79.73
68506;BME280;55509;50.680;17.942;2023-02-15T00:52:45;101369.95;;;1.81;79.86
68506;BME280;55509;50.680;17.942;2023-02-15T00:55:46;101366.66;;;1.81;79.57
68506;BME280;55509;50.680;17.942;2023-02-15T00:58:48;101359.29;;;1.79;79.70
68506;BME280;55509;50.680;17.942;2023-02-15T01:01:49;101357.02;;;1.74;79.66
68506;BME280;55509;50.680;17.942;2023-02-15T01:04:51;101352.09;;;1.67;80.17
68506;BME280;55509;50.680;17.942;2023-02-15T01:07:52;101352.09;;;1.62;80.26
68506;BME280;55509;50.680;17.942;2023-02-15T01:10:54;101345.58;;;1.59;80.67
68506;BME280;55509;50.680;17.942;2023-02-15T01:13:56;101342.15;;;1.55;80.35
68506;BME280;55509;50.680;17.942;2023-02-15T01:16:58;101340.98;;;1.51;80.85
68506;BME280;55509;50.680;17.942;2023-02-15T01:20:00;101339.73;;;1.50;81.09
68506;BME280;55509;50.680;17.942;2023-02-15T01:23:02;101333.70;;;1.51;80.90
68506;BME280;55509;50.680;17.942;2023-02-15T01:26:03;101330.50;;;1.49;81.06
68506;BME280;55509;50.680;17.942;2023-02-15T01:29:05;101332.59;;;1.44;80.65
68506;BME280;55509;50.680;17.942;2023-02-15T01:32:06;101332.55;;;1.38;80.90
68506;BME280;55509;50.680;17.942;2023-02-15T01:35:08;101331.33;;;1.34;81.15
68506;BME280;55509;50.680;17.942;2023-02-15T01:38:10;101325.98;;;1.29;81.29
68506;BME280;55509;50.680;17.942;2023-02-15T01:41:12;101330.49;;;1.29;81.18
68506;BME280;55509;50.680;17.942;2023-02-15T01:47:49;101327.95;;;1.36;81.52
68506;BME280;55509;50.680;17.942;2023-02-15T01:50:54;101323.02;;;1.39;81.72
68506;BME280;55509;50.680;17.942;2023-02-15T01:57:37;101317.62;;;1.48;81.86
68506;BME280;55509;50.680;17.942;2023-02-15T02:00:39;101315.98;;;1.51;81.50
68506;BME280;55509;50.680;17.942;2023-02-15T02:03:50;101313.63;;;1.52;81.62
68506;BME280;55509;50.680;17.942;2023-02-15T02:06:54;101316.30;;;1.55;81.71
68506;BME280;55509;50.680;17.942;2023-02-15T02:09:58;101310.23;;;1.60;81.46
68506;BME280;55509;50.680;17.942;2023-02-15T02:13:00;101310.19;;;1.64;81.55
68506;BME280;55509;50.680;17.942;2023-02-15T02:16:08;101306.02;;;1.68;81.53
68506;BME280;55509;50.680;17.942;2023-02-15T02:28:41;101284.09;;;1.72;81.23
68506;BME280;55509;50.680;17.942;2023-02-15T02:35:08;101278.75;;;1.73;81.36
68506;BME280;55509;50.680;17.942;2023-02-15T02:42:01;101268.40;;;1.64;81.26
68506;BME280;55509;50.680;17.942;2023-02-15T02:45:06;101269.15;;;1.60;81.52
68506;BME280;55509;50.680;17.942;2023-02-15T02:48:11;101268.29;;;1.60;81.66
68506;BME280;55509;50.680;17.942;2023-02-15T02:51:13;101269.55;;;1.62;81.82
68506;BME280;55509;50.680;17.942;2023-02-15T02:54:21;101266.45;;;1.63;81.65
68506;BME280;55509;50.680;17.942;2023-02-15T02:57:23;101266.82;;;1.63;81.89
68506;BME280;55509;50.680;17.942;2023-02-15T03:00:26;101276.06;;;1.65;81.50
68506;BME280;55509;50.680;17.942;2023-02-15T03:03:35;101271.31;;;1.68;81.70
68506;BME280;55509;50.680;17.942;2023-02-15T03:06:40;101273.14;;;1.71;81.46
68506;BME280;55509;50.680;17.942;2023-02-15T03:09:43;101273.54;;;1.72;81.88
68506;BME280;55509;50.680;17.942;2023-02-15T03:12:46;101273.52;;;1.71;81.81
68506;BME280;55509;50.680;17.942;2023-02-15T03:15:48;101270.02;;;1.71;81.89
68506;BME280;55509;50.680;17.942;2023-02-15T03:19:11;101272.33;;;1.72;82.11
68506;BME280;55509;50.680;17.942;2023-02-15T03:22:25;101272.92;;;1.74;81.78
68506;BME280;55509;50.680;17.942;2023-02-15T03:25:33;101271.90;;;1.75;81.76
68506;BME280;55509;50.680;17.942;2023-02-15T03:28:36;101276.37;;;1.74;81.98
68506;BME280;55509;50.680;17.942;2023-02-15T03:31:40;101275.81;;;1.73;81.86
68506;BME280;55509;50.680;17.942;2023-02-15T03:34:43;101276.79;;;1.71;81.73
68506;BME280;55509;50.680;17.942;2023-02-15T03:37:49;101276.61;;;1.71;82.16
68506;BME280;55509;50.680;17.942;2023-02-15T03:40:53;101277.58;;;1.74;82.03
68506;BME280;55509;50.680;17.942;2023-02-15T03:44:11;101273.86;;;1.77;82.05
68506;BME280;55509;50.680;17.942;2023-02-15T03:47:17;101272.02;;;1.79;81.91
68506;BME280;55509;50.680;17.942;2023-02-15T03:50:21;101274.01;;;1.81;81.93
68506;BME280;55509;50.680;17.942;2023-02-15T03:53:45;101271.08;;;1.81;81.93
68506;BME280;55509;50.680;17.942;2023-02-15T03:56:48;101265.80;;;1.79;82.07
68506;BME280;55509;50.680;17.942;2023-02-15T04:00:17;101262.80;;;1.78;82.15
68506;BME280;55509;50.680;17.942;2023-02-15T04:03:53;101260.55;;;1.78;82.19
68506;BME280;55509;50.680;17.942;2023-02-15T04:06:56;101259.17;;;1.78;82.25
68506;BME280;55509;50.680;17.942;2023-02-15T04:09:58;101259.15;;;1.78;82.09
68506;BME280;55509;50.680;17.942;2023-02-15T04:13:19;101261.73;;;1.77;82.32
68506;BME280;55509;50.680;17.942;2023-02-15T04:16:21;101259.13;;;1.77;82.20
68506;BME280;55509;50.680;17.942;2023-02-15T04:19:22;101255.64;;;1.77;82.32
68506;BME280;55509;50.680;17.942;2023-02-15T04:22:43;101254.15;;;1.73;82.43
68506;BME280;55509;50.680;17.942;2023-02-15T04:26:04;101249.38;;;1.71;82.46
68506;BME280;55509;50.680;17.942;2023-02-15T04:29:06;101245.27;;;1.67;82.63
68506;BME280;55509;50.680;17.942;2023-02-15T04:32:07;101240.59;;;1.61;82.71
68506;BME280;55509;50.680;17.942;2023-02-15T04:35:08;101239.69;;;1.55;83.07
68506;BME280;55509;50.680;17.942;2023-02-15T04:38:10;101238.20;;;1.52;83.29
68506;BME280;55509;50.680;17.942;2023-02-15T04:41:12;101232.22;;;1.50;83.43
68506;BME280;55509;50.680;17.942;2023-02-15T04:44:14;101230.02;;;1.47;83.47
68506;BME280;55509;50.680;17.942;2023-02-15T04:47:16;101229.30;;;1.45;83.88
68506;BME280;55509;50.680;17.942;2023-02-15T04:50:17;101227.13;;;1.43;83.61
68506;BME280;55509;50.680;17.942;2023-02-15T04:53:19;101228.34;;;1.38;83.94
68506;BME280;55509;50.680;17.942;2023-02-15T04:56:20;101228.90;;;1.34;83.91
68506;BME280;55509;50.680;17.942;2023-02-15T04:59:22;101231.74;;;1.30;83.87
68506;BME280;55509;50.680;17.942;2023-02-15T05:02:23;101238.39;;;1.27;84.18
68506;BME280;55509;50.680;17.942;2023-02-15T05:05:25;101235.27;;;1.22;84.38
68506;BME280;55509;50.680;17.942;2023-02-15T05:08:27;101236.88;;;1.19;84.72
68506;BME280;55509;50.680;17.942;2023-02-15T05:11:28;101237.88;;;1.17;84.79
68506;BME280;55509;50.680;17.942;2023-02-15T05:14:29;101237.88;;;1.17;84.85
68506;BME280;55509;50.680;17.942;2023-02-15T05:17:31;101233.99;;;1.15;85.45
68506;BME280;55509;50.680;17.942;2023-02-15T05:20:33;101229.13;;;1.15;85.74
68506;BME280;55509;50.680;17.942;2023-02-15T05:23:35;101230.20;;;1.16;85.60
68506;BME280;55509;50.680;17.942;2023-02-15T05:26:36;101228.24;;;1.15;85.90
68506;BME280;55509;50.680;17.942;2023-02-15T05:29:56;101230.55;;;1.11;86.01
68506;BME280;55509;50.680;17.942;2023-02-15T05:32:58;101229.77;;;1.08;85.87
68506;BME280;55509;50.680;17.942;2023-02-15T05:35:59;101229.98;;;1.05;85.92
68506;BME280;55509;50.680;17.942;2023-02-15T05:39:01;101236.44;;;1.01;86.09
68506;BME280;55509;50.680;17.942;2023-02-15T05:42:05;101237.08;;;1.00;86.52
68506;BME280;55509;50.680;17.942;2023-02-15T05:45:07;101240.21;;;1.00;86.60
68506;BME280;55509;50.680;17.942;2023-02-15T05:48:08;101237.13;;;1.01;86.53
68506;BME280;55509;50.680;17.942;2023-02-15T05:51:11;101238.46;;;0.99;86.72
68506;BME280;55509;50.680;17.942;2023-02-15T05:54:17;101239.67;;;1.00;87.00
68506;BME280;55509;50.680;17.942;2023-02-15T05:57:18;101239.71;;;1.00;87.02
68506;BME280;55509;50.680;17.942;2023-02-15T06:00:20;101237.98;;;1.00;86.88
68506;BME280;55509;50.680;17.942;2023-02-15T06:03:22;101235.64;;;0.98;87.07
68506;BME280;55509;50.680;17.942;2023-02-15T06:06:23;101232.14;;;0.97;87.24
68506;BME280;55509;50.680;17.942;2023-02-15T06:09:25;101232.63;;;0.97;87.06
68506;BME280;55509;50.680;17.942;2023-02-15T06:12:26;101231.90;;;0.95;86.71
68506;BME280;55509;50.680;17.942;2023-02-15T06:15:28;101230.05;;;0.92;86.40
68506;BME280;55509;50.680;17.942;2023-02-15T06:18:32;101235.21;;;0.86;86.29
68506;BME280;55509;50.680;17.942;2023-02-15T06:21:34;101239.88;;;0.81;86.42
68506;BME280;55509;50.680;17.942;2023-02-15T06:24:35;101236.92;;;0.81;86.42
68506;BME280;55509;50.680;17.942;2023-02-15T06:27:37;101234.14;;;0.81;86.46
68506;BME280;55509;50.680;17.942;2023-02-15T06:30:39;101233.48;;;0.82;86.31
68506;BME280;55509;50.680;17.942;2023-02-15T06:33:40;101230.85;;;1.00;86.52
68506;BME280;55509;50.680;17.942;2023-02-15T06:36:42;101227.77;;;1.52;85.77
68506;BME280;55509;50.680;17.942;2023-02-15T06:39:44;101226.36;;;2.11;84.65
68506;BME280;55509;50.680;17.942;2023-02-15T06:42:45;101223.58;;;2.63;82.59
68506;BME280;55509;50.680;17.942;2023-02-15T06:45:47;101219.07;;;3.13;81.18
68506;BME280;55509;50.680;17.942;2023-02-15T06:48:49;101216.19;;;3.64;79.89
68506;BME280;55509;50.680;17.942;2023-02-15T06:51:50;101219.23;;;4.19;77.97
68506;BME280;55509;50.680;17.942;2023-02-15T06:54:52;101215.19;;;4.67;76.36
68506;BME280;55509;50.680;17.942;2023-02-15T06:57:53;101215.52;;;5.11;74.58
68506;BME280;55509;50.680;17.942;2023-02-15T07:00:55;101214.09;;;5.47;72.30
68506;BME280;55509;50.680;17.942;2023-02-15T07:03:56;101214.28;;;5.91;71.31
68506;BME280;55509;50.680;17.942;2023-02-15T07:06:58;101215.15;;;6.36;69.43
68506;BME280;55509;50.680;17.942;2023-02-15T07:09:59;101203.60;;;6.78;67.33
68506;BME280;55509;50.680;17.942;2023-02-15T07:13:01;101201.98;;;7.23;66.21
68506;BME280;55509;50.680;17.942;2023-02-15T07:16:02;101199.04;;;7.63;64.75
68506;BME280;55509;50.680;17.942;2023-02-15T07:19:04;101194.11;;;8.10;63.35
68506;BME280;55509;50.680;17.942;2023-02-15T07:22:05;101189.63;;;8.56;61.50
68506;BME280;55509;50.680;17.942;2023-02-15T07:25:08;101188.03;;;8.95;59.72
68506;BME280;55509;50.680;17.942;2023-02-15T07:28:10;101184.23;;;9.32;58.00
68506;BME280;55509;50.680;17.942;2023-02-15T07:31:11;101188.11;;;9.56;56.28
68506;BME280;55509;50.680;17.942;2023-02-15T07:34:13;101182.11;;;9.90;55.69
68506;BME280;55509;50.680;17.942;2023-02-15T07:37:14;101178.86;;;10.27;54.61
68506;BME280;55509;50.680;17.942;2023-02-15T07:40:16;101172.77;;;10.69;53.86
68506;BME280;55509;50.680;17.942;2023-02-15T07:43:17;101161.45;;;11.06;51.49
68506;BME280;55509;50.680;17.942;2023-02-15T07:46:19;101162.11;;;11.38;50.65
68506;BME280;55509;50.680;17.942;2023-02-15T07:49:22;101153.79;;;11.65;49.25
68506;BME280;55509;50.680;17.942;2023-02-15T07:52:23;101153.20;;;11.90;48.85
68506;BME280;55509;50.680;17.942;2023-02-15T07:55:26;101143.94;;;12.33;47.70
68506;BME280;55509;50.680;17.942;2023-02-15T07:58:28;101145.86;;;12.76;46.57
68506;BME280;55509;50.680;17.942;2023-02-15T08:01:48;101142.45;;;13.04;45.28
68506;BME280;55509;50.680;17.942;2023-02-15T08:04:49;101145.54;;;13.33;44.47
68506;BME280;55509;50.680;17.942;2023-02-15T08:07:51;101135.34;;;13.63;43.87
68506;BME280;55509;50.680;17.942;2023-02-15T08:10:52;101134.91;;;13.97;43.85
68506;BME280;55509;50.680;17.942;2023-02-15T08:14:13;101128.02;;;14.41;42.99
68506;BME280;55509;50.680;17.942;2023-02-15T08:17:15;101121.23;;;14.60;41.62
68506;BME280;55509;50.680;17.942;2023-02-15T08:20:17;101120.20;;;14.59;40.33
68506;BME280;55509;50.680;17.942;2023-02-15T08:23:18;101121.59;;;14.60;39.93
68506;BME280;55509;50.680;17.942;2023-02-15T08:26:21;101118.98;;;14.57;39.58
68506;BME280;55509;50.680;17.942;2023-02-15T08:29:24;101112.92;;;14.67;39.61
68506;BME280;55509;50.680;17.942;2023-02-15T08:32:25;101110.11;;;14.84;39.74
68506;BME280;55509;50.680;17.942;2023-02-15T08:35:27;101113.14;;;14.98;38.99
68506;BME280;55509;50.680;17.942;2023-02-15T08:38:28;101111.48;;;15.30;38.61
68506;BME280;55509;50.680;17.942;2023-02-15T08:41:31;101112.30;;;15.25;38.36
68506;BME280;55509;50.680;17.942;2023-02-15T08:44:33;101103.23;;;15.34;39.05
68506;BME280;55509;50.680;17.942;2023-02-15T08:47:34;101104.52;;;15.61;37.55
68506;BME280;55509;50.680;17.942;2023-02-15T08:50:36;101099.56;;;15.74;37.51
68506;BME280;55509;50.680;17.942;2023-02-15T08:53:38;101087.59;;;16.22;36.34
68506;BME280;55509;50.680;17.942;2023-02-15T08:56:41;101092.36;;;16.47;35.78
68506;BME280;55509;50.680;17.942;2023-02-15T08:59:43;101092.24;;;16.79;34.94
68506;BME280;55509;50.680;17.942;2023-02-15T09:02:44;101086.10;;;17.38;34.39
68506;BME280;55509;50.680;17.942;2023-02-15T09:05:46;101076.06;;;18.01;34.14
68506;BME280;55509;50.680;17.942;2023-02-15T09:08:48;101073.23;;;18.49;32.16
68506;BME280;55509;50.680;17.942;2023-02-15T09:11:50;101071.04;;;18.50;31.77
68506;BME280;55509;50.680;17.942;2023-02-15T09:14:52;101073.02;;;18.90;31.88
68506;BME280;55509;50.680;17.942;2023-02-15T09:17:54;101072.84;;;19.26;30.81
68506;BME280;55509;50.680;17.942;2023-02-15T09:20:55;101071.03;;;19.38;30.28
68506;BME280;55509;50.680;17.942;2023-02-15T09:23:58;101064.76;;;19.48;30.32
68506;BME280;55509;50.680;17.942;2023-02-15T09:27:00;101063.36;;;19.91;30.62
68506;BME280;55509;50.680;17.942;2023-02-15T09:30:03;101063.66;;;20.17;29.29
68506;BME280;55509;50.680;17.942;2023-02-15T09:33:04;101064.23;;;20.35;29.14
68506;BME280;55509;50.680;17.942;2023-02-15T09:36:13;101065.70;;;20.72;28.79
68506;BME280;55509;50.680;17.942;2023-02-15T09:39:19;101064.36;;;21.00;28.29
68506;BME280;55509;50.680;17.942;2023-02-15T09:45:35;101061.29;;;21.12;27.69
68506;BME280;55509;50.680;17.942;2023-02-15T09:48:39;101057.64;;;21.20;27.13
68506;BME280;55509;50.680;17.942;2023-02-15T09:55:10;101049.41;;;21.41;26.88
68506;BME280;55509;50.680;17.942;2023-02-15T10:04:34;101033.91;;;22.05;26.36
68506;BME280;55509;50.680;17.942;2023-02-15T10:14:00;101020.30;;;22.05;25.99
68506;BME280;55509;50.680;17.942;2023-02-15T10:20:27;101015.95;;;22.12;25.81
68506;BME280;55509;50.680;17.942;2023-02-15T10:26:44;101010.08;;;22.53;25.21
68506;BME280;55509;50.680;17.942;2023-02-15T10:29:56;101009.42;;;22.59;25.45
68506;BME280;55509;50.680;17.942;2023-02-15T10:33:03;101002.63;;;22.71;25.31
68506;BME280;55509;50.680;17.942;2023-02-15T10:39:53;100994.61;;;23.19;24.62
68506;BME280;55509;50.680;17.942;2023-02-15T11:01:54;100967.14;;;25.78;22.73
68506;BME280;55509;50.680;17.942;2023-02-15T11:08:43;100965.23;;;25.15;23.15
68506;BME280;55509;50.680;17.942;2023-02-15T11:11:46;100962.45;;;24.49;22.85
68506;BME280;55509;50.680;17.942;2023-02-15T11:24:20;100951.76;;;23.12;24.09
68506;BME280;55509;50.680;17.942;2023-02-15T11:27:22;100951.20;;;23.10;24.14
68506;BME280;55509;50.680;17.942;2023-02-15T11:30:27;100952.27;;;23.25;24.53
68506;BME280;55509;50.680;17.942;2023-02-15T11:33:32;100945.75;;;23.23;24.82
68506;BME280;55509;50.680;17.942;2023-02-15T11:36:37;100941.20;;;23.71;24.78
68506;BME280;55509;50.680;17.942;2023-02-15T11:39:41;100937.14;;;24.04;23.97
68506;BME280;55509;50.680;17.942;2023-02-15T11:42:45;100932.95;;;24.02;23.64
68506;BME280;55509;50.680;17.942;2023-02-15T11:45:48;100932.81;;;23.79;23.03
68506;BME280;55509;50.680;17.942;2023-02-15T11:48:49;100929.67;;;23.37;23.56
68506;BME280;55509;50.680;17.942;2023-02-15T11:51:51;100927.59;;;23.36;23.80
68506;BME280;55509;50.680;17.942;2023-02-15T11:54:54;100919.34;;;23.03;23.78
68506;BME280;55509;50.680;17.942;2023-02-15T12:04:32;100907.70;;;22.70;24.13
68506;BME280;55509;50.680;17.942;2023-02-15T12:07:36;100909.45;;;22.46;24.38
68506;BME280;55509;50.680;17.942;2023-02-15T12:10:41;100901.12;;;22.38;24.78
68506;BME280;55509;50.680;17.942;2023-02-15T12:13:55;100898.71;;;22.45;24.53
68506;BME280;55509;50.680;17.942;2023-02-15T12:16:57;100897.77;;;22.18;24.28
68506;BME280;55509;50.680;17.942;2023-02-15T12:20:03;100897.23;;;21.99;24.90
68506;BME280;55509;50.680;17.942;2023-02-15T12:23:16;100886.84;;;21.90;25.07
68506;BME280;55509;50.680;17.942;2023-02-15T12:26:29;100886.02;;;21.79;24.97
68506;BME280;55509;50.680;17.942;2023-02-15T12:29:41;100880.72;;;21.81;25.15
68506;BME280;55509;50.680;17.942;2023-02-15T12:32:48;100884.94;;;21.89;24.80
68506;BME280;55509;50.680;17.942;2023-02-15T12:35:59;100876.80;;;21.84;25.53
68506;BME280;55509;50.680;17.942;2023-02-15T12:42:16;100868.12;;;22.29;24.81
68506;BME280;55509;50.680;17.942;2023-02-15T12:45:25;100863.25;;;22.33;24.89
68506;BME280;55509;50.680;17.942;2023-02-15T12:48:27;100850.48;;;22.52;24.98
68506;BME280;55509;50.680;17.942;2023-02-15T12:51:28;100852.34;;;22.63;24.82
68506;BME280;55509;50.680;17.942;2023-02-15T12:54:31;100838.93;;;22.75;25.07
68506;BME280;55509;50.680;17.942;2023-02-15T12:57:33;100836.81;;;22.95;24.91
68506;BME280;55509;50.680;17.942;2023-02-15T13:00:35;100841.44;;;23.01;24.80
68506;BME280;55509;50.680;17.942;2023-02-15T13:03:54;100831.26;;;22.92;24.76
68506;BME280;55509;50.680;17.942;2023-02-15T13:06:58;100821.86;;;22.99;24.61
68506;BME280;55509;50.680;17.942;2023-02-15T13:10:01;100819.84;;;23.08;24.17
68506;BME280;55509;50.680;17.942;2023-02-15T13:13:09;100810.87;;;23.02;24.34
68506;BME280;55509;50.680;17.942;2023-02-15T13:16:11;100807.89;;;22.96;23.99
68506;BME280;55509;50.680;17.942;2023-02-15T13:19:15;100808.96;;;23.13;24.30
68506;BME280;55509;50.680;17.942;2023-02-15T13:22:26;100803.48;;;22.77;23.45
68506;BME280;55509;50.680;17.942;2023-02-15T13:25:31;100808.94;;;22.21;24.55
68506;BME280;55509;50.680;17.942;2023-02-15T13:28:42;100808.79;;;22.11;24.90
68506;BME280;55509;50.680;17.942;2023-02-15T13:31:45;100809.42;;;22.04;24.85
68506;BME280;55509;50.680;17.942;2023-02-15T13:34:47;100808.53;;;21.72;24.92
68506;BME280;55509;50.680;17.942;2023-02-15T13:37:58;100808.19;;;21.78;25.16
68506;BME280;55509;50.680;17.942;2023-02-15T13:41:04;100808.52;;;21.53;24.69
68506;BME280;55509;50.680;17.942;2023-02-15T13:44:19;100809.17;;;21.11;25.03
68506;BME280;55509;50.680;17.942;2023-02-15T13:56:52;100817.92;;;19.44;27.97
68506;BME280;55509;50.680;17.942;2023-02-15T14:00:08;100817.61;;;19.27;27.84
68506;BME280;55509;50.680;17.942;2023-02-15T14:25:40;100820.50;;;14.47;35.98
68506;BME280;55509;50.680;17.942;2023-02-15T14:28:49;100815.23;;;14.66;35.68
68506;BME280;55509;50.680;17.942;2023-02-15T14:31:54;100816.64;;;14.45;36.28
68506;BME280;55509;50.680;17.942;2023-02-15T14:34:57;100815.89;;;12.99;38.90
68506;BME280;55509;50.680;17.942;2023-02-15T14:44:22;100818.86;;;10.01;46.51
68506;BME280;55509;50.680;17.942;2023-02-15T14:47:31;100823.45;;;9.45;48.42
68506;BME280;55509;50.680;17.942;2023-02-15T14:53:38;100822.70;;;8.63;51.02
68506;BME280;55509;50.680;17.942;2023-02-15T14:56:41;100824.80;;;8.33;52.58
68506;BME280;55509;50.680;17.942;2023-02-15T15:03:22;100828.45;;;7.86;54.35
68506;BME280;55509;50.680;17.942;2023-02-15T15:06:28;100832.09;;;7.65;55.01
68506;BME280;55509;50.680;17.942;2023-02-15T15:09:30;100829.58;;;7.44;56.24
68506;BME280;55509;50.680;17.942;2023-02-15T15:15:48;100820.72;;;7.08;57.02
68506;BME280;55509;50.680;17.942;2023-02-15T15:18:54;100819.07;;;6.92;57.72
68506;BME280;55509;50.680;17.942;2023-02-15T15:21:56;100818.46;;;6.78;58.55
68506;BME280;55509;50.680;17.942;2023-02-15T15:25:04;100818.90;;;6.63;58.54
68506;BME280;55509;50.680;17.942;2023-02-15T15:28:06;100818.64;;;6.50;59.34
68506;BME280;55509;50.680;17.942;2023-02-15T15:34:33;100819.20;;;6.29;59.99
68506;BME280;55509;50.680;17.942;2023-02-15T15:44:01;100812.05;;;5.94;61.13
68506;BME280;55509;50.680;17.942;2023-02-15T15:50:30;100803.06;;;5.66;61.71
68506;BME280;55509;50.680;17.942;2023-02-15T15:53:34;100802.77;;;5.54;62.24
68506;BME280;55509;50.680;17.942;2023-02-15T15:56:39;100805.26;;;5.41;62.73
68506;BME280;55509;50.680;17.942;2023-02-15T15:59:44;100799.02;;;5.30;63.10
68506;BME280;55509;50.680;17.942;2023-02-15T16:02:53;100795.55;;;5.17;63.50
68506;BME280;55509;50.680;17.942;2023-02-15T16:05:55;100791.92;;;5.05;64.18
68506;BME280;55509;50.680;17.942;2023-02-15T16:08:58;100790.95;;;4.96;64.58
68506;BME280;55509;50.680;17.942;2023-02-15T16:12:13;100787.88;;;4.88;64.62
68506;BME280;55509;50.680;17.942;2023-02-15T16:15:20;100787.39;;;4.76;65.23
68506;BME280;55509;50.680;17.942;2023-02-15T16:18:25;100788.48;;;4.66;65.35
68506;BME280;55509;50.680;17.942;2023-02-15T16:21:34;100791.45;;;4.56;65.78
68506;BME280;55509;50.680;17.942;2023-02-15T16:24:38;100790.25;;;4.44;66.08
68506;BME280;55509;50.680;17.942;2023-02-15T16:27:43;100791.84;;;4.34;66.44
68506;BME280;55509;50.680;17.942;2023-02-15T16:30:46;100790.66;;;4.25;66.87
68506;BME280;55509;50.680;17.942;2023-02-15T16:33:55;100788.48;;;4.19;66.69
68506;BME280;55509;50.680;17.942;2023-02-15T16:37:20;100795.49;;;4.11;66.82
68506;BME280;55509;50.680;17.942;2023-02-15T16:43:26;100795.36;;;3.93;67.22
68506;BME280;55509;50.680;17.942;2023-02-15T16:46:30;100792.43;;;3.84;67.73
68506;BME280;55509;50.680;17.942;2023-02-15T16:49:32;100791.23;;;3.75;67.72
68506;BME280;55509;50.680;17.942;2023-02-15T16:52:35;100790.98;;;3.70;68.16
68506;BME280;55509;50.680;17.942;2023-02-15T16:55:38;100787.08;;;3.66;68.04
68506;BME280;55509;50.680;17.942;2023-02-15T16:58:41;100791.65;;;3.59;68.46
68506;BME280;55509;50.680;17.942;2023-02-15T17:01:43;100789.23;;;3.50;68.67
68506;BME280;55509;50.680;17.942;2023-02-15T17:04:48;100789.60;;;3.41;69.12
68506;BME280;55509;50.680;17.942;2023-02-15T17:11:11;100788.64;;;3.27;69.81
68506;BME280;55509;50.680;17.942;2023-02-15T17:14:13;100789.05;;;3.22;69.84
68506;BME280;55509;50.680;17.942;2023-02-15T17:17:21;100786.50;;;3.16;70.02
68506;BME280;55509;50.680;17.942;2023-02-15T17:20:23;100784.27;;;3.09;70.51
68506;BME280;55509;50.680;17.942;2023-02-15T17:26:31;100781.96;;;2.97;71.20
68506;BME280;55509;50.680;17.942;2023-02-15T17:29:37;100777.71;;;2.94;71.23
68506;BME280;55509;50.680;17.942;2023-02-15T17:32:42;100773.27;;;2.89;71.37
68506;BME280;55509;50.680;17.942;2023-02-15T17:36:03;100768.64;;;2.83;71.65
68506;BME280;55509;50.680;17.942;2023-02-15T17:39:17;100766.42;;;2.77;72.17
68506;BME280;55509;50.680;17.942;2023-02-15T17:42:20;100765.14;;;2.74;72.14
68506;BME280;55509;50.680;17.942;2023-02-15T17:45:22;100763.33;;;2.70;72.25
68506;BME280;55509;50.680;17.942;2023-02-15T17:51:33;100764.60;;;2.57;72.87
68506;BME280;55509;50.680;17.942;2023-02-15T17:54:36;100769.32;;;2.50;73.18
68506;BME280;55509;50.680;17.942;2023-02-15T17:57:56;100768.16;;;2.44;73.56
68506;BME280;55509;50.680;17.942;2023-02-15T18:01:05;100765.08;;;2.40;73.50
68506;BME280;55509;50.680;17.942;2023-02-15T18:04:25;100765.09;;;2.32;73.77
68506;BME280;55509;50.680;17.942;2023-02-15T18:07:45;100765.64;;;2.25;74.39
68506;BME280;55509;50.680;17.942;2023-02-15T18:11:08;100767.93;;;2.19;74.31
68506;BME280;55509;50.680;17.942;2023-02-15T18:14:29;100767.35;;;2.16;74.56
68506;BME280;55509;50.680;17.942;2023-02-15T18:17:42;100770.19;;;2.12;74.94
68506;BME280;55509;50.680;17.942;2023-02-15T18:20:45;100769.31;;;2.04;74.97
68506;BME280;55509;50.680;17.942;2023-02-15T18:23:46;100769.20;;;1.99;75.23
68506;BME280;55509;50.680;17.942;2023-02-15T18:26:48;100770.70;;;1.98;75.60
68506;BME280;55509;50.680;17.942;2023-02-15T18:29:49;100766.27;;;1.94;75.72
68506;BME280;55509;50.680;17.942;2023-02-15T18:32:51;100765.98;;;1.89;75.90
68506;BME280;55509;50.680;17.942;2023-02-15T18:35:54;100765.38;;;1.85;76.26
68506;BME280;55509;50.680;17.942;2023-02-15T18:38:56;100758.02;;;1.81;76.18
68506;BME280;55509;50.680;17.942;2023-02-15T18:41:58;100754.41;;;1.76;76.51
68506;BME280;55509;50.680;17.942;2023-02-15T18:45:00;100751.13;;;1.70;76.77
68506;BME280;55509;50.680;17.942;2023-02-15T18:48:03;100748.56;;;1.64;76.89
68506;BME280;55509;50.680;17.942;2023-02-15T18:51:05;100745.02;;;1.62;76.91